Amherst, Canada
Current Conditions -  °F | °C
As of 2:00 AM on Sunday 21 Dec 2014 (Local Time) from CYQM Reporting Station
Snow Showers Snow Showers  
Wind Chill: -2°   Ceiling: 1700
Heat Index: -2°   Visibility: 15mi
Dew Point: -5°   Wind: 2mph
Humidity: 80%   Direction: NA
Pressure: 30.34"   Gusts: NA
Location:  45.85°N, 64.27°W
Report Text: CYQM 210600Z VRB02KT 15SM -SHSN OVC017 M02/M05 A3034 RMK SC8 SLP278
Loading
Personal Weather Stations






























Interactive Weather Map New forecast layout! Learn more

10-Day Weather Forecast

Advertisements
Track Severe Weather on mobile